createdAt,value
2022-08-09T00:01:24.748Z,24.83
2022-08-09T00:04:10.415Z,25.07
2022-08-09T00:06:27.971Z,25.07
2022-08-09T00:08:57.709Z,24.59
2022-08-09T00:11:54.950Z,24.81
2022-08-09T00:13:57.640Z,25.75
2022-08-09T00:16:36.379Z,25.25
2022-08-09T00:18:57.599Z,25.25
2022-08-09T00:21:27.714Z,25.62
2022-08-09T00:23:59.758Z,24.43
2022-08-09T00:26:33.016Z,24.44
2022-08-09T00:29:02.814Z,24.95
2022-08-09T00:31:58.438Z,24.95
2022-08-09T00:34:03.516Z,24.83
2022-08-09T00:36:32.840Z,25.73
2022-08-09T00:39:02.057Z,25.73
2022-08-09T00:44:14.087Z,25.99
2022-08-09T00:44:16.634Z,26.74
2022-08-09T00:46:56.549Z,27.56
2022-08-09T00:49:05.671Z,28.50
2022-08-09T00:51:54.094Z,27.44
2022-08-09T00:54:05.830Z,27.06
2022-08-09T00:56:34.995Z,27.06
2022-08-09T00:59:04.305Z,26.56
2022-08-09T01:01:44.213Z,25.87
2022-08-09T01:04:29.316Z,25.87
2022-08-09T01:07:37.562Z,26.37
2022-08-09T01:10:14.236Z,26.07
2022-08-09T01:13:07.418Z,26.07
2022-08-09T01:15:41.104Z,27.32
2022-08-09T01:18:14.321Z,26.72
2022-08-09T01:21:06.089Z,26.97
2022-08-09T01:24:01.013Z,26.97
2022-08-09T01:26:52.923Z,27.33
2022-08-09T01:29:28.569Z,26.99
2022-08-09T01:32:32.181Z,26.65
2022-08-09T01:34:35.519Z,26.62
2022-08-09T01:37:09.266Z,27.49
2022-08-09T01:39:41.782Z,27.49
2022-08-09T01:42:12.331Z,26.33
2022-08-09T01:44:43.311Z,26.67
2022-08-09T01:47:14.871Z,27.26
2022-08-09T01:49:48.875Z,28.13
2022-08-09T01:52:20.535Z,28.08
2022-08-09T01:54:52.643Z,27.98
2022-08-09T01:57:27.358Z,28.89
2022-08-09T02:00:08.906Z,28.97
2022-08-09T02:02:36.617Z,27.44
2022-08-09T02:05:15.493Z,27.88
2022-08-09T02:08:35.571Z,27.88
2022-08-09T02:10:29.778Z,27.89
2022-08-09T02:12:52.150Z,28.18
2022-08-09T02:15:24.645Z,27.21
2022-08-09T02:18:09.523Z,26.83
2022-08-09T02:20:32.803Z,26.83
2022-08-09T02:23:09.796Z,27.98
2022-08-09T02:25:49.596Z,27.98
2022-08-09T02:28:17.722Z,27.23
2022-08-09T02:30:52.857Z,27.94
2022-08-09T02:33:37.836Z,27.94
2022-08-09T02:36:01.238Z,28.50
2022-08-09T02:38:39.801Z,28.14
2022-08-09T02:41:16.164Z,28.55
2022-08-09T02:43:55.047Z,28.55
2022-08-09T02:46:19.910Z,28.01
2022-08-09T02:48:51.427Z,27.22
2022-08-09T02:51:24.229Z,27.79
2022-08-09T02:54:00.323Z,27.32
2022-08-09T02:56:31.034Z,27.99
2022-08-09T02:59:02.879Z,26.93
2022-08-09T03:01:43.147Z,26.59
2022-08-09T03:04:16.525Z,28.01
2022-08-09T03:06:41.628Z,28.01
2022-08-09T03:09:14.501Z,26.28
2022-08-09T03:12:06.163Z,26.26
2022-08-09T03:14:16.298Z,26.59
2022-08-09T03:16:48.136Z,25.50
2022-08-09T03:19:52.795Z,25.40
2022-08-09T03:21:52.684Z,25.02
2022-08-09T03:24:31.387Z,25.51
2022-08-09T03:26:53.813Z,25.51
2022-08-09T03:29:24.745Z,24.32
2022-08-09T03:31:59.912Z,24.37
2022-08-09T03:34:27.488Z,24.46
2022-08-09T03:36:59.741Z,24.46
2022-08-09T03:39:37.930Z,22.24
2022-08-09T03:42:06.689Z,22.24
2022-08-09T03:44:32.098Z,22.71
2022-08-09T03:47:01.358Z,22.35
2022-08-09T03:49:35.647Z,22.35
2022-08-09T03:52:04.366Z,22.45
2022-08-09T03:54:41.262Z,22.97
2022-08-09T03:57:20.351Z,22.92
2022-08-09T03:59:54.141Z,22.87
2022-08-09T04:02:15.284Z,22.93
2022-08-09T04:04:46.404Z,22.60
2022-08-09T04:07:17.795Z,22.05
2022-08-09T04:09:50.244Z,22.05
2022-08-09T04:12:30.503Z,22.84
2022-08-09T04:15:02.130Z,21.79
2022-08-09T04:17:25.028Z,22.81
2022-08-09T04:19:56.138Z,22.02
2022-08-09T04:22:25.115Z,22.02
2022-08-09T04:24:55.894Z,22.32
2022-08-09T04:27:24.978Z,21.62
2022-08-09T04:29:54.179Z,21.96
2022-08-09T04:32:31.365Z,21.14
2022-08-09T04:34:57.512Z,22.13
2022-08-09T04:37:24.937Z,20.60
2022-08-09T04:39:55.784Z,20.60
2022-08-09T04:42:29.486Z,21.06
2022-08-09T04:44:58.473Z,20.18
2022-08-09T04:47:45.221Z,20.18
2022-08-09T04:50:00.561Z,20.14
2022-08-09T04:52:30.992Z,21.28
2022-08-09T04:55:07.264Z,20.72
2022-08-09T04:57:58.367Z,20.72
2022-08-09T05:00:06.120Z,19.63
2022-08-09T05:02:36.993Z,19.97
2022-08-09T05:05:09.853Z,19.82
2022-08-09T05:07:37.542Z,20.06
2022-08-09T05:10:08.685Z,20.06
2022-08-09T05:12:37.896Z,19.18
2022-08-09T05:15:11.817Z,19.70
2022-08-09T05:18:38.168Z,19.70
2022-08-09T05:20:11.469Z,19.73
2022-08-09T05:23:54.120Z,19.36
2022-08-09T05:25:12.137Z,19.36
2022-08-09T05:27:45.385Z,18.54
2022-08-09T05:30:14.452Z,17.60
2022-08-09T05:32:50.650Z,17.60
2022-08-09T05:35:16.638Z,16.90
2022-08-09T05:37:47.619Z,16.90
2022-08-09T05:40:16.952Z,17.87
2022-08-09T05:42:47.751Z,17.19
2022-08-09T05:45:16.925Z,17.19
2022-08-09T05:47:52.958Z,18.03
2022-08-09T05:50:35.004Z,17.27
2022-08-09T05:52:53.353Z,17.27
2022-08-09T05:55:20.590Z,16.93
2022-08-09T05:57:57.546Z,17.99
2022-08-09T06:00:24.468Z,15.47
2022-08-09T06:02:56.776Z,16.19
2022-08-09T06:05:49.978Z,16.19
2022-08-09T06:08:05.329Z,17.29
2022-08-09T06:10:41.765Z,17.29
2022-08-09T06:13:20.169Z,15.67
2022-08-09T06:15:44.074Z,15.67
2022-08-09T06:18:15.703Z,15.38
2022-08-09T06:20:49.814Z,16.35
2022-08-09T06:23:15.847Z,15.73
2022-08-09T06:25:45.441Z,15.73
2022-08-09T06:28:16.186Z,15.49
2022-08-09T06:30:45.284Z,16.25
2022-08-09T06:33:39.939Z,15.23
2022-08-09T06:35:57.214Z,15.48
2022-08-09T06:38:17.894Z,15.48
2022-08-09T06:40:49.098Z,15.61
2022-08-09T06:43:20.101Z,14.94
2022-08-09T06:46:04.663Z,15.46
2022-08-09T06:48:30.258Z,14.70
2022-08-09T06:50:50.983Z,15.26
2022-08-09T06:53:20.682Z,15.26
2022-08-09T06:55:50.346Z,15.59
2022-08-09T06:58:40.609Z,15.59
2022-08-09T07:00:58.719Z,15.38
2022-08-09T07:03:28.650Z,15.64
2022-08-09T07:06:02.901Z,15.18
2022-08-09T07:08:22.919Z,15.18
2022-08-09T07:10:54.084Z,16.70
2022-08-09T07:13:28.112Z,16.70
2022-08-09T07:16:41.317Z,15.33
2022-08-09T07:18:24.903Z,15.44
2022-08-09T07:20:55.673Z,15.24
2022-08-09T07:23:24.775Z,15.68
2022-08-09T07:26:02.259Z,15.26
2022-08-09T07:28:28.288Z,15.26
2022-08-09T07:30:57.782Z,16.27
2022-08-09T07:33:27.081Z,16.27
2022-08-09T07:35:57.830Z,15.84
2022-08-09T07:38:31.031Z,15.53
2022-08-09T07:41:11.605Z,16.06
2022-08-09T07:43:29.408Z,15.30
2022-08-09T07:46:01.811Z,16.29
2022-08-09T07:48:30.737Z,15.22
2022-08-09T07:51:09.619Z,15.09
2022-08-09T07:54:04.291Z,13.89
2022-08-09T07:56:06.594Z,13.89
2022-08-09T07:58:35.963Z,14.35
2022-08-09T08:01:06.786Z,15.94
2022-08-09T08:03:36.920Z,15.11
2022-08-09T08:06:06.839Z,15.11
2022-08-09T08:09:01.124Z,15.01
2022-08-09T08:12:11.194Z,14.21
2022-08-09T08:13:44.924Z,14.21
2022-08-09T08:16:29.826Z,14.59
2022-08-09T08:18:40.961Z,14.33
2022-08-09T08:21:11.751Z,14.55
2022-08-09T08:23:41.050Z,15.03
2022-08-09T08:26:11.515Z,14.45
2022-08-09T08:28:40.981Z,13.96
2022-08-09T08:31:14.384Z,14.02
2022-08-09T08:33:53.336Z,14.22
2022-08-09T08:36:11.962Z,14.16
2022-08-09T08:38:42.809Z,14.80
2022-08-09T08:41:14.107Z,14.80
2022-08-09T08:43:44.481Z,15.10
2022-08-09T08:46:33.052Z,15.10
2022-08-09T08:48:51.190Z,14.52
2022-08-09T08:51:19.243Z,14.52
2022-08-09T08:54:02.985Z,15.05
2022-08-09T08:56:25.094Z,14.70
2022-08-09T08:58:53.004Z,14.70
2022-08-09T09:01:24.857Z,14.56
2022-08-09T09:03:54.011Z,14.56
2022-08-09T09:06:25.305Z,14.15
2022-08-09T09:08:59.804Z,14.57
2022-08-09T09:11:30.143Z,15.10
2022-08-09T09:14:03.313Z,14.15
2022-08-09T09:16:35.795Z,14.15
2022-08-09T09:19:22.537Z,15.08
2022-08-09T09:21:58.352Z,14.38
2022-08-09T09:24:33.729Z,15.18
2022-08-09T09:27:05.316Z,14.79
2022-08-09T09:30:08.616Z,14.91
2022-08-09T09:32:15.452Z,14.46
2022-08-09T09:34:44.727Z,13.86
2022-08-09T09:37:16.395Z,15.35
2022-08-09T09:39:54.744Z,15.31
2022-08-09T09:42:27.896Z,14.55
2022-08-09T09:45:05.373Z,14.55
2022-08-09T09:47:42.154Z,14.69
2022-08-09T09:50:14.614Z,15.19
2022-08-09T09:52:40.236Z,15.19
2022-08-09T09:55:28.491Z,15.18
2022-08-09T09:58:04.373Z,14.85
2022-08-09T10:00:26.766Z,14.69
2022-08-09T10:02:56.236Z,14.89
2022-08-09T10:05:27.100Z,14.88
2022-08-09T10:08:18.251Z,15.43
2022-08-09T10:10:38.250Z,14.44
2022-08-09T10:13:10.119Z,14.44
2022-08-09T10:16:55.589Z,15.55
2022-08-09T10:18:21.771Z,15.37
2022-08-09T10:20:53.214Z,16.08
2022-08-09T10:23:28.191Z,16.78
2022-08-09T10:26:06.307Z,16.78
2022-08-09T10:28:28.688Z,16.49
2022-08-09T10:34:10.655Z,16.08
2022-08-09T10:36:02.333Z,14.87
2022-08-09T10:38:34.456Z,14.87
2022-08-09T10:41:02.558Z,15.59
2022-08-09T10:43:36.069Z,14.74
2022-08-09T10:46:05.817Z,15.73
2022-08-09T10:48:47.802Z,15.73
2022-08-09T10:51:29.777Z,14.99
2022-08-09T10:54:05.188Z,15.01
2022-08-09T10:56:37.137Z,13.96
2022-08-09T10:59:31.587Z,15.60
2022-08-09T11:03:13.479Z,15.60
2022-08-09T11:04:33.264Z,14.20
2022-08-09T11:07:05.416Z,14.08
2022-08-09T11:09:47.695Z,14.08
2022-08-09T11:12:26.437Z,14.69
2022-08-09T11:15:04.962Z,13.67
2022-08-09T11:17:41.741Z,14.05
2022-08-09T11:20:22.196Z,14.83
2022-08-09T11:22:57.237Z,14.83
2022-08-09T11:25:44.975Z,14.51
2022-08-09T11:28:19.560Z,15.27
2022-08-09T11:30:38.463Z,14.27
2022-08-09T11:33:22.391Z,13.70
2022-08-09T11:35:58.145Z,12.49
2022-08-09T11:38:41.370Z,12.75
2022-08-09T11:41:16.712Z,12.75
2022-08-09T11:43:52.225Z,11.65
2022-08-09T11:46:33.163Z,12.17
2022-08-09T11:48:56.607Z,13.72
2022-08-09T11:52:49.482Z,13.72
2022-08-09T11:54:28.284Z,12.78
2022-08-09T11:56:50.499Z,12.27
2022-08-09T11:59:30.693Z,12.25
2022-08-09T12:02:16.397Z,12.25
2022-08-09T12:04:37.585Z,11.40
2022-08-09T12:07:01.937Z,11.40
2022-08-09T12:09:33.605Z,11.44
2022-08-09T12:12:12.217Z,11.27
2022-08-09T12:14:58.966Z,11.48
2022-08-09T12:17:27.850Z,11.48
2022-08-09T12:19:46.568Z,11.66
2022-08-09T12:22:20.525Z,11.66
2022-08-09T12:24:49.574Z,11.96
2022-08-09T12:28:59.334Z,12.21
2022-08-09T12:30:01.810Z,12.21
2022-08-09T12:32:29.063Z,11.18
2022-08-09T12:35:12.458Z,11.72
2022-08-09T12:37:49.790Z,11.21
2022-08-09T12:40:13.738Z,10.93
2022-08-09T12:42:50.454Z,11.09
2022-08-09T12:45:33.199Z,11.40
2022-08-09T12:47:53.328Z,11.48
2022-08-09T12:50:23.516Z,10.93
2022-08-09T12:53:17.716Z,11.02
2022-08-09T12:56:14.375Z,10.90
2022-08-09T12:58:06.123Z,11.67
2022-08-09T13:00:42.326Z,11.67
2022-08-09T13:03:24.416Z,12.06
2022-08-09T13:06:11.310Z,11.48
2022-08-09T13:08:39.741Z,11.48
2022-08-09T13:11:01.090Z,11.06
2022-08-09T13:14:43.786Z,11.06
2022-08-09T13:16:15.194Z,11.67
2022-08-09T13:18:48.556Z,11.16
2022-08-09T13:22:37.160Z,11.40
2022-08-09T13:24:41.960Z,11.40
2022-08-09T13:26:43.371Z,11.18
2022-08-09T13:29:16.861Z,11.43
2022-08-09T13:32:20.042Z,11.05
2022-08-09T13:34:34.325Z,10.84
2022-08-09T13:37:06.497Z,11.85
2022-08-09T13:41:50.735Z,11.85
2022-08-09T13:42:16.034Z,11.27
2022-08-09T13:44:48.493Z,11.31
2022-08-09T13:47:29.745Z,11.65
2022-08-09T13:49:57.854Z,11.42
2022-08-09T13:52:22.758Z,11.89
2022-08-09T13:55:00.434Z,11.76
2022-08-09T13:57:36.538Z,11.47
2022-08-09T13:59:53.934Z,12.31
2022-08-09T14:02:26.028Z,12.31
2022-08-09T14:04:59.619Z,12.46
2022-08-09T14:07:25.227Z,13.54
2022-08-09T14:09:56.069Z,13.30
2022-08-09T14:12:26.797Z,13.21
2022-08-09T14:14:56.530Z,13.06
2022-08-09T14:17:25.832Z,13.41
2022-08-09T14:19:57.139Z,13.32
2022-08-09T14:22:26.586Z,12.97
2022-08-09T14:24:55.847Z,12.60
2022-08-09T14:27:25.097Z,12.62
2022-08-09T14:30:35.159Z,13.16
2022-08-09T14:32:28.659Z,13.07
2022-08-09T14:34:57.548Z,13.56
2022-08-09T14:37:28.085Z,13.80
2022-08-09T14:39:57.892Z,13.65
2022-08-09T14:42:29.072Z,13.35
2022-08-09T14:44:59.879Z,13.17
2022-08-09T14:47:46.600Z,13.33
2022-08-09T14:50:02.022Z,13.09
2022-08-09T14:52:30.959Z,13.47
2022-08-09T14:55:00.168Z,13.19
2022-08-09T14:57:31.997Z,13.19
2022-08-09T15:00:00.299Z,13.15
2022-08-09T15:02:30.837Z,13.60
2022-08-09T15:05:02.651Z,13.19
2022-08-09T15:07:35.086Z,13.53
2022-08-09T15:10:07.604Z,13.43
2022-08-09T15:12:34.182Z,13.69
2022-08-09T15:15:04.014Z,13.67
2022-08-09T15:17:41.490Z,13.67
2022-08-09T15:21:54.981Z,13.91
2022-08-09T15:23:02.844Z,13.91
2022-08-09T15:25:38.944Z,13.85
2022-08-09T15:28:00.875Z,13.85
2022-08-09T15:30:59.765Z,13.86
2022-08-09T15:32:56.550Z,13.96
2022-08-09T15:35:40.716Z,14.04
2022-08-09T15:38:11.170Z,13.69
2022-08-09T15:40:31.943Z,14.30
2022-08-09T15:43:00.085Z,14.23
2022-08-09T15:45:31.164Z,14.40
2022-08-09T15:48:07.831Z,14.38
2022-08-09T15:50:33.236Z,14.29
2022-08-09T15:53:06.047Z,14.31
2022-08-09T15:55:34.545Z,14.43
2022-08-09T15:58:03.833Z,15.15
2022-08-09T16:00:33.562Z,15.15
2022-08-09T16:03:04.335Z,14.04
2022-08-09T16:05:47.412Z,14.47
2022-08-09T16:08:04.325Z,14.78
2022-08-09T16:10:55.533Z,14.45
2022-08-09T16:13:04.687Z,14.45
2022-08-09T16:16:04.415Z,15.42
2022-08-09T16:18:08.420Z,14.73
2022-08-09T16:20:38.579Z,14.73
2022-08-09T16:23:09.376Z,15.30
2022-08-09T16:25:40.565Z,15.30
2022-08-09T16:28:12.150Z,15.40
2022-08-09T16:30:44.813Z,15.40
2022-08-09T16:33:12.228Z,15.07
2022-08-09T16:35:56.010Z,15.42
2022-08-09T16:38:14.393Z,15.68
2022-08-09T16:40:45.748Z,15.68
2022-08-09T16:43:15.357Z,15.86
2022-08-09T16:45:46.168Z,15.64
2022-08-09T16:48:39.301Z,15.64
2022-08-09T16:50:49.873Z,15.17
2022-08-09T16:53:18.888Z,14.74
2022-08-09T16:55:59.088Z,15.03
2022-08-09T16:58:21.413Z,15.03
2022-08-09T17:00:51.531Z,15.70
2022-08-09T17:03:21.493Z,15.56
2022-08-09T17:06:07.161Z,15.35
2022-08-09T17:08:45.395Z,16.17
2022-08-09T17:10:58.537Z,16.41
2022-08-09T17:13:27.728Z,16.41
2022-08-09T17:16:02.069Z,15.82
2022-08-09T17:18:30.097Z,17.40
2022-08-09T17:20:59.420Z,17.40
2022-08-09T17:24:21.167Z,17.52
2022-08-09T17:26:02.018Z,17.54
2022-08-09T17:28:31.005Z,18.57
2022-08-09T17:31:00.749Z,18.57
2022-08-09T17:33:37.747Z,18.42
2022-08-09T17:36:00.658Z,18.42
2022-08-09T17:38:32.171Z,18.42
2022-08-09T17:41:02.914Z,18.20
2022-08-09T17:43:37.374Z,18.83
2022-08-09T17:46:07.636Z,18.94
2022-08-09T17:48:51.688Z,19.70
2022-08-09T17:51:19.523Z,19.01
2022-08-09T17:53:51.953Z,19.60
2022-08-09T17:56:18.419Z,19.43
2022-08-09T17:58:47.716Z,19.29
2022-08-09T18:01:22.682Z,19.29
2022-08-09T18:03:48.060Z,19.78
2022-08-09T18:06:31.007Z,20.23
2022-08-09T18:08:48.410Z,20.32
2022-08-09T18:11:18.516Z,20.79
2022-08-09T18:13:56.520Z,20.87
2022-08-09T18:16:29.202Z,20.94
2022-08-09T18:18:51.240Z,21.24
2022-08-09T18:21:23.602Z,21.24
2022-08-09T18:24:11.191Z,22.24
2022-08-09T18:26:22.298Z,22.24
2022-08-09T18:30:41.356Z,22.92
2022-08-09T18:31:32.175Z,22.82
2022-08-09T18:33:54.042Z,22.82
2022-08-09T18:36:31.894Z,22.69
2022-08-09T18:39:00.881Z,23.56
2022-08-09T18:41:27.430Z,23.71
2022-08-09T18:43:56.208Z,23.46
2022-08-09T18:46:50.146Z,24.06
2022-08-09T18:48:56.447Z,24.06
2022-08-09T18:51:38.416Z,23.69
2022-08-09T18:54:03.779Z,24.58
2022-08-09T18:56:30.090Z,25.14
2022-08-09T18:59:01.213Z,25.72
2022-08-09T19:01:43.215Z,25.13
2022-08-09T19:04:08.224Z,25.91
2022-08-09T19:06:32.380Z,26.88
2022-08-09T19:09:02.489Z,26.16
2022-08-09T19:11:38.051Z,24.92
2022-08-09T19:14:05.248Z,24.92
2022-08-09T19:16:37.999Z,25.00
2022-08-09T19:19:10.659Z,26.10
2022-08-09T19:21:51.872Z,26.10
2022-08-09T19:24:39.725Z,25.85
2022-08-09T19:26:42.431Z,24.43
2022-08-09T19:29:17.704Z,24.43
2022-08-09T19:31:46.027Z,24.96
2022-08-09T19:34:21.955Z,25.91
2022-08-09T19:36:47.283Z,25.83
2022-08-09T19:39:16.410Z,25.83
2022-08-09T19:41:45.586Z,27.20
2022-08-09T19:44:14.959Z,27.20
2022-08-09T19:46:50.036Z,26.48
2022-08-09T19:50:08.545Z,26.38
2022-08-09T19:51:48.055Z,26.33
2022-08-09T19:54:18.512Z,26.76
2022-08-09T19:56:49.950Z,26.96
2022-08-09T19:59:58.343Z,27.27
2022-08-09T20:02:05.205Z,26.54
2022-08-09T20:04:36.434Z,26.54
2022-08-09T20:06:52.704Z,26.88
2022-08-09T20:09:44.404Z,26.48
2022-08-09T20:11:53.195Z,26.13
2022-08-09T20:14:22.685Z,26.44
2022-08-09T20:16:54.959Z,26.44
2022-08-09T20:19:47.439Z,27.31
2022-08-09T20:21:59.825Z,27.56
2022-08-09T20:24:31.793Z,27.99
2022-08-09T20:26:59.489Z,27.75
2022-08-09T20:29:37.428Z,29.15
2022-08-09T20:32:30.694Z,28.70
2022-08-09T20:34:31.167Z,28.70
2022-08-09T20:37:00.368Z,27.63
2022-08-09T20:40:15.998Z,28.35
2022-08-09T20:42:00.460Z,28.01
2022-08-09T20:44:33.269Z,28.90
2022-08-09T20:47:00.434Z,29.28
2022-08-09T20:49:30.028Z,29.15
2022-08-09T20:52:00.431Z,29.38
2022-08-09T20:54:29.722Z,29.38
2022-08-09T20:56:59.176Z,29.34
2022-08-09T21:00:20.025Z,29.44
2022-08-09T21:02:00.402Z,29.48
2022-08-09T21:05:53.562Z,29.48
2022-08-09T21:07:11.414Z,30.24
2022-08-09T21:09:42.132Z,28.86
2022-08-09T21:14:38.345Z,28.54
2022-08-09T21:18:22.877Z,29.85
2022-08-09T21:20:18.717Z,29.57
2022-08-09T21:22:35.471Z,29.35
2022-08-09T21:24:40.221Z,30.77
2022-08-09T21:27:51.173Z,31.35
2022-08-09T21:29:49.356Z,30.98
2022-08-09T21:32:18.509Z,30.07
2022-08-09T21:34:48.497Z,30.51
2022-08-09T21:37:18.097Z,29.42
2022-08-09T21:39:45.232Z,30.19
2022-08-09T21:42:15.868Z,30.07
2022-08-09T21:44:45.765Z,31.97
2022-08-09T21:47:18.268Z,32.45
2022-08-09T21:49:46.780Z,33.20
2022-08-09T21:52:20.374Z,32.67
2022-08-09T21:54:59.452Z,33.92
2022-08-09T21:57:37.137Z,33.19
2022-08-09T21:59:52.840Z,32.90
2022-08-09T22:02:29.762Z,34.50
2022-08-09T22:04:57.379Z,34.50
2022-08-09T22:07:39.880Z,32.33
2022-08-09T22:09:55.837Z,33.44
2022-08-09T22:12:31.248Z,33.44
2022-08-09T22:14:55.925Z,35.02
2022-08-09T22:17:26.443Z,32.38
2022-08-09T22:19:59.670Z,32.38
2022-08-09T22:22:26.770Z,34.08
2022-08-09T22:26:05.499Z,34.76
2022-08-09T22:27:27.425Z,35.19
2022-08-09T22:29:58.367Z,34.96
2022-08-09T22:32:31.609Z,33.90
2022-08-09T22:35:06.105Z,35.63
2022-08-09T22:37:40.028Z,34.60
2022-08-09T22:40:02.282Z,33.99
2022-08-09T22:42:31.560Z,33.44
2022-08-09T22:48:11.136Z,33.42
2022-08-09T22:48:15.100Z,32.87
2022-08-09T22:50:04.072Z,32.97
2022-08-09T22:52:33.148Z,32.97
2022-08-09T22:55:02.361Z,33.82
2022-08-09T22:57:35.530Z,33.77
2022-08-09T23:00:02.511Z,34.77
2022-08-09T23:02:31.673Z,34.77
2022-08-09T23:05:00.773Z,33.66
2022-08-09T23:08:29.354Z,34.21
2022-08-09T23:10:18.690Z,33.91
2022-08-09T23:12:48.023Z,33.91
2022-08-09T23:15:17.332Z,36.17
2022-08-09T23:17:46.454Z,35.42
2022-08-09T23:20:15.860Z,36.45
2022-08-09T23:22:45.027Z,36.45
2022-08-09T23:25:14.457Z,35.78
2022-08-09T23:28:00.601Z,37.04
2022-08-09T23:30:15.078Z,34.88
2022-08-09T23:32:44.296Z,34.88
2022-08-09T23:35:13.473Z,34.90
2022-08-09T23:37:42.567Z,35.34
2022-08-09T23:40:12.451Z,36.79
2022-08-09T23:42:41.705Z,38.91
2022-08-09T23:45:37.309Z,38.91
2022-08-09T23:47:42.436Z,37.70
2022-08-09T23:50:11.938Z,37.11
2022-08-09T23:52:41.140Z,38.15
2022-08-09T23:55:11.988Z,38.14
2022-08-09T23:58:06.639Z,35.87
